Time;durP1;ratioP1;P1;durP2;ratioP2;P2;SDS_P1;SDS_P2;PMS_P1;PMS_P2;Temp;Humidity;BMP_temperature;BMP_pressure;BME280_temperature;BME280_humidity;BME280_pressure;Samples;Min_cycle;Max_cycle;Signal;HPM_P1;HPM_P2
2022/04/29 00:01:22;;;;;;;0.30;0.30;;;7.60;96.00;;;;;;5052482;28;20258;-67
2022/04/29 00:03:48;;;;;;;0.30;0.30;;;7.50;96.30;;;;;;5051714;28;20177;-66
2022/04/29 00:06:15;;;;;;;0.30;0.30;;;7.40;96.20;;;;;;5052793;28;20213;-67
2022/04/29 00:08:40;;;;;;;0.40;0.40;;;7.30;96.30;;;;;;5052891;28;20227;-66
2022/04/29 00:11:06;;;;;;;0.30;0.30;;;7.30;96.40;;;;;;5052512;28;20191;-67
2022/04/29 00:13:32;;;;;;;0.50;0.50;;;7.30;96.60;;;;;;5052858;28;20435;-67
2022/04/29 00:15:59;;;;;;;0.40;0.40;;;7.30;96.70;;;;;;5052890;28;20215;-66
2022/04/29 00:18:25;;;;;;;0.30;0.30;;;7.30;96.40;;;;;;5053074;28;20170;-67
2022/04/29 00:20:51;;;;;;;0.30;0.30;;;7.30;96.50;;;;;;5052230;28;20267;-66
2022/04/29 00:23:18;;;;;;;0.30;0.30;;;7.30;96.50;;;;;;5054610;28;20659;-66
2022/04/29 00:25:44;;;;;;;0.30;0.30;;;7.30;96.60;;;;;;5056339;28;20170;-66
2022/04/29 00:28:09;;;;;;;0.43;0.43;;;7.20;96.80;;;;;;5056250;28;20590;-66
2022/04/29 00:30:35;;;;;;;0.30;0.30;;;7.20;96.60;;;;;;5056176;28;20445;-67
2022/04/29 00:33:01;;;;;;;0.60;0.60;;;7.20;96.60;;;;;;5056068;28;20199;-66
2022/04/29 00:35:27;;;;;;;0.40;0.40;;;7.20;96.60;;;;;;5056337;28;20174;-66
2022/04/29 00:37:54;;;;;;;0.50;0.50;;;7.20;96.20;;;;;;5056087;28;20169;-67
2022/04/29 00:40:25;;;;;;;0.40;0.40;;;7.30;96.30;;;;;;5055621;28;20198;-66
2022/04/29 00:42:51;;;;;;;0.30;0.30;;;7.20;96.20;;;;;;5055920;28;20171;-66
2022/04/29 00:45:18;;;;;;;0.40;0.40;;;7.20;96.30;;;;;;5056010;28;20246;-66
2022/04/29 00:47:44;;;;;;;1.13;1.13;;;7.20;96.40;;;;;;5054450;28;20608;-66
2022/04/29 00:50:12;;;;;;;0.30;0.30;;;7.20;96.30;;;;;;5055532;28;20265;-67
2022/04/29 00:52:42;;;;;;;0.40;0.40;;;7.20;96.40;;;;;;5055778;28;20168;-67
2022/04/29 00:55:10;;;;;;;0.30;0.30;;;7.10;96.70;;;;;;5055868;28;20176;-67
2022/04/29 00:57:49;;;;;;;0.40;0.40;;;7.10;96.50;;;;;;5055703;28;20199;-66
2022/04/29 01:00:16;;;;;;;0.30;0.30;;;7.10;96.50;;;;;;5055267;28;20199;-66
2022/04/29 01:02:46;;;;;;;0.38;0.38;;;7.00;96.70;;;;;;5055582;28;20174;-67
2022/04/29 01:05:17;;;;;;;0.30;0.30;;;7.10;96.60;;;;;;5055784;28;20175;-69
2022/04/29 01:07:44;;;;;;;0.32;0.32;;;7.20;96.60;;;;;;5055665;28;20576;-69
2022/04/29 01:10:12;;;;;;;0.30;0.30;;;7.20;96.40;;;;;;5055112;28;20187;-68
2022/04/29 01:12:41;;;;;;;0.40;0.40;;;7.10;96.10;;;;;;5055762;28;20256;-69
2022/04/29 01:15:17;;;;;;;0.40;0.40;;;7.00;96.10;;;;;;5055351;28;20177;-66
2022/04/29 01:17:46;;;;;;;0.30;0.30;;;7.00;96.10;;;;;;5055611;28;20174;-67
2022/04/29 01:20:14;;;;;;;0.38;0.38;;;7.00;96.60;;;;;;5054947;28;20193;-67
2022/04/29 01:22:41;;;;;;;0.30;0.30;;;7.00;96.70;;;;;;5054947;28;20195;-67
2022/04/29 01:25:07;;;;;;;0.40;0.40;;;7.10;96.70;;;;;;5055272;28;20657;-67
2022/04/29 01:27:33;;;;;;;0.35;0.35;;;7.00;96.40;;;;;;5055054;28;20518;-67
2022/04/29 01:30:06;;;;;;;0.30;0.30;;;7.00;96.60;;;;;;5054960;28;20193;-66
2022/04/29 01:32:33;;;;;;;0.40;0.40;;;7.00;96.60;;;;;;5054868;28;20171;-67
2022/04/29 01:34:59;;;;;;;0.30;0.30;;;7.00;96.30;;;;;;5054377;28;20176;-67
2022/04/29 01:37:25;;;;;;;0.32;0.32;;;6.90;96.20;;;;;;5054832;28;20183;-66
2022/04/29 01:39:51;;;;;;;0.30;0.30;;;6.90;96.30;;;;;;5054576;28;20198;-66
2022/04/29 01:42:16;;;;;;;0.90;0.90;;;7.00;96.40;;;;;;5054761;28;20763;-67
2022/04/29 01:44:43;;;;;;;0.30;0.30;;;7.00;96.20;;;;;;5054860;28;20170;-66
2022/04/29 01:47:08;;;;;;;0.38;0.38;;;6.90;96.10;;;;;;5054843;28;20791;-67
2022/04/29 01:49:34;;;;;;;0.37;0.37;;;6.90;96.00;;;;;;5054716;28;20218;-66
2022/04/29 01:52:00;;;;;;;0.40;0.40;;;6.90;96.30;;;;;;5054413;28;20262;-66
2022/04/29 01:54:26;;;;;;;0.30;0.30;;;6.90;96.40;;;;;;5054755;28;20253;-67
2022/04/29 01:56:53;;;;;;;0.40;0.40;;;6.90;96.30;;;;;;5054702;28;20639;-66
2022/04/29 01:59:19;;;;;;;0.30;0.30;;;7.00;96.00;;;;;;5053181;28;20182;-67
2022/04/29 02:01:46;;;;;;;1.67;1.58;;;7.00;96.10;;;;;;5054298;28;20190;-67
2022/04/29 02:04:12;;;;;;;0.30;0.30;;;7.00;96.10;;;;;;5054478;28;20702;-66
2022/04/29 02:06:38;;;;;;;0.30;0.30;;;6.90;96.10;;;;;;5054304;28;20176;-66
2022/04/29 02:09:07;;;;;;;0.30;0.30;;;7.00;96.40;;;;;;5052998;28;20216;-67
2022/04/29 02:11:34;;;;;;;0.30;0.30;;;6.90;96.10;;;;;;5054069;28;20204;-67
2022/04/29 02:14:01;;;;;;;0.38;0.38;;;6.90;96.10;;;;;;5054270;28;20174;-67
2022/04/29 02:16:27;;;;;;;0.30;0.30;;;6.90;96.10;;;;;;5054332;28;20174;-66
2022/04/29 02:18:52;;;;;;;0.30;0.30;;;6.90;96.30;;;;;;5053990;28;20650;-67
2022/04/29 02:21:18;;;;;;;0.30;0.30;;;6.90;96.40;;;;;;5053631;28;20468;-67
2022/04/29 02:23:44;;;;;;;0.40;0.40;;;6.80;96.40;;;;;;5054040;28;20173;-67
2022/04/29 02:26:09;;;;;;;0.70;0.67;;;6.80;96.50;;;;;;5053999;28;20175;-67
2022/04/29 02:28:35;;;;;;;0.30;0.30;;;6.80;96.40;;;;;;5054058;28;20166;-66
2022/04/29 02:31:01;;;;;;;0.30;0.30;;;6.80;96.60;;;;;;5053563;28;20202;-67
2022/04/29 02:33:27;;;;;;;0.30;0.30;;;6.80;96.70;;;;;;5053725;28;20259;-67
2022/04/29 02:35:54;;;;;;;0.30;0.30;;;6.70;96.70;;;;;;5053775;28;20164;-66
2022/04/29 02:38:20;;;;;;;0.80;0.80;;;6.70;96.20;;;;;;5053760;28;20265;-66
2022/04/29 02:40:45;;;;;;;0.30;0.30;;;6.80;96.20;;;;;;5053397;28;20290;-66
2022/04/29 02:43:11;;;;;;;0.30;0.30;;;6.80;96.10;;;;;;5053789;28;20409;-66
2022/04/29 02:45:37;;;;;;;0.30;0.30;;;6.80;96.00;;;;;;5053573;28;20234;-67
2022/04/29 02:48:04;;;;;;;0.30;0.30;;;6.70;95.80;;;;;;5054235;28;20616;-68
2022/04/29 02:50:30;;;;;;;0.30;0.30;;;6.80;95.70;;;;;;5053394;28;20456;-69
2022/04/29 02:52:56;;;;;;;0.30;0.30;;;6.90;95.60;;;;;;5053677;28;20178;-66
2022/04/29 02:55:22;;;;;;;0.40;0.40;;;6.90;95.50;;;;;;5053710;28;20258;-67
2022/04/29 02:57:47;;;;;;;0.30;0.30;;;6.90;95.80;;;;;;5053589;28;20399;-66
2022/04/29 03:00:14;;;;;;;0.30;0.30;;;6.80;95.80;;;;;;5053292;28;20187;-67
2022/04/29 03:02:39;;;;;;;0.40;0.40;;;6.80;95.90;;;;;;5053482;28;20565;-67
2022/04/29 03:05:06;;;;;;;0.40;0.40;;;6.70;95.80;;;;;;5053547;28;20175;-65
2022/04/29 03:07:33;;;;;;;0.40;0.40;;;6.70;96.10;;;;;;5053504;28;20178;-67
2022/04/29 03:09:59;;;;;;;0.30;0.30;;;6.70;96.10;;;;;;5053265;28;20210;-67
2022/04/29 03:12:25;;;;;;;0.50;0.50;;;6.60;95.90;;;;;;5053438;28;20186;-66
2022/04/29 03:14:50;;;;;;;0.30;0.30;;;6.50;95.50;;;;;;5053319;28;20546;-67
2022/04/29 03:20:00;;;;;;;0.30;0.30;;;6.60;96.00;;;;;;5053209;28;20198;-66
2022/04/29 03:22:27;;;;;;;0.40;0.40;;;6.70;95.80;;;;;;5053120;28;20573;-67
2022/04/29 03:24:53;;;;;;;0.38;0.38;;;6.60;95.60;;;;;;5053343;28;20177;-66
2022/04/29 03:27:18;;;;;;;0.40;0.40;;;6.60;95.80;;;;;;5053364;28;20678;-67
2022/04/29 03:29:44;;;;;;;0.40;0.40;;;6.60;95.70;;;;;;5052872;28;20186;-67
2022/04/29 03:32:10;;;;;;;0.30;0.30;;;6.70;95.50;;;;;;5053166;28;20163;-67
2022/04/29 03:34:36;;;;;;;0.30;0.30;;;6.70;95.40;;;;;;5053074;28;20500;-66
2022/04/29 03:37:01;;;;;;;0.40;0.40;;;6.70;95.30;;;;;;5053141;28;20428;-66
2022/04/29 03:39:28;;;;;;;0.33;0.33;;;6.70;95.40;;;;;;5053270;28;20175;-66
2022/04/29 03:41:53;;;;;;;0.30;0.30;;;6.70;95.40;;;;;;5052893;28;20244;-66
2022/04/29 03:44:20;;;;;;;0.40;0.40;;;6.80;95.10;;;;;;5053013;28;20179;-67
2022/04/29 03:46:46;;;;;;;0.30;0.30;;;6.80;95.40;;;;;;5053223;28;20154;-66
2022/04/29 03:51:56;;;;;;;0.30;0.30;;;6.70;95.90;;;;;;5052965;28;20177;-67
2022/04/29 03:54:21;;;;;;;0.30;0.30;;;6.60;95.60;;;;;;5052882;28;20175;-66
2022/04/29 03:56:47;;;;;;;0.40;0.40;;;6.60;95.60;;;;;;5054214;28;20171;-66
2022/04/29 03:59:13;;;;;;;0.30;0.30;;;6.60;95.50;;;;;;5056845;28;20245;-66
2022/04/29 04:01:39;;;;;;;0.30;0.30;;;6.70;96.00;;;;;;5056460;28;20308;-66
2022/04/29 04:04:04;;;;;;;0.30;0.30;;;6.70;95.60;;;;;;5056731;28;20572;-67
2022/04/29 04:09:15;;;;;;;0.40;0.40;;;6.70;95.60;;;;;;5056548;28;20224;-67
2022/04/29 04:11:41;;;;;;;0.40;0.40;;;6.70;95.60;;;;;;5056352;28;20179;-66
2022/04/29 04:14:08;;;;;;;0.30;0.30;;;6.60;95.70;;;;;;5056509;28;20166;-66
2022/04/29 04:16:34;;;;;;;0.32;0.32;;;6.50;95.30;;;;;;5056559;28;20643;-67
2022/04/29 04:18:59;;;;;;;0.30;0.30;;;6.50;95.20;;;;;;5056474;28;20178;-67
2022/04/29 04:21:26;;;;;;;0.30;0.30;;;6.50;94.90;;;;;;5055912;28;20214;-66
2022/04/29 04:23:53;;;;;;;0.32;0.32;;;6.60;95.20;;;;;;5056447;28;20257;-66
2022/04/29 04:26:19;;;;;;;0.30;0.30;;;6.70;95.30;;;;;;5056106;28;20221;-67
2022/04/29 04:28:44;;;;;;;0.30;0.30;;;6.70;95.20;;;;;;5056233;28;20186;-67
2022/04/29 04:31:10;;;;;;;0.40;0.40;;;6.70;95.00;;;;;;5055957;28;20424;-67
2022/04/29 04:33:35;;;;;;;0.30;0.30;;;6.70;95.00;;;;;;5056312;28;20204;-67
2022/04/29 04:36:01;;;;;;;0.30;0.30;;;6.70;95.00;;;;;;5056218;28;20696;-67
2022/04/29 04:38:27;;;;;;;0.30;0.30;;;6.60;95.00;;;;;;5054661;28;20179;-66
2022/04/29 04:40:53;;;;;;;0.40;0.40;;;6.60;95.60;;;;;;5055494;28;20456;-67
2022/04/29 04:43:20;;;;;;;2.25;2.15;;;6.60;95.60;;;;;;5055922;28;20501;-67
2022/04/29 04:45:46;;;;;;;0.40;0.40;;;6.70;95.70;;;;;;5056051;28;20541;-66
2022/04/29 04:48:12;;;;;;;0.30;0.30;;;6.80;95.60;;;;;;5056016;28;20176;-66
2022/04/29 04:50:38;;;;;;;0.30;0.30;;;6.90;95.70;;;;;;5055488;28;20480;-67
2022/04/29 04:53:03;;;;;;;0.30;0.30;;;6.80;95.40;;;;;;5054356;28;20477;-67
2022/04/29 04:55:29;;;;;;;0.30;0.30;;;6.80;95.60;;;;;;5055847;28;20174;-66
2022/04/29 04:57:55;;;;;;;0.30;0.30;;;6.90;95.40;;;;;;5055648;28;20167;-68
2022/04/29 05:00:21;;;;;;;0.33;0.33;;;7.00;95.50;;;;;;5055222;28;20266;-67
2022/04/29 05:02:47;;;;;;;0.38;0.38;;;7.10;95.20;;;;;;5055624;28;20644;-66
2022/04/29 05:05:12;;;;;;;0.40;0.40;;;7.20;95.40;;;;;;5055672;28;20182;-68
2022/04/29 05:07:38;;;;;;;0.30;0.30;;;7.40;95.10;;;;;;5055735;28;20176;-66
2022/04/29 05:10:08;;;;;;;0.40;0.40;;;7.60;94.80;;;;;;5055487;28;20192;-67
2022/04/29 05:12:41;;;;;;;0.30;0.30;;;8.10;94.60;;;;;;5055241;28;20448;-66
2022/04/29 05:15:08;;;;;;;0.30;0.30;;;8.70;93.60;;;;;;5055483;28;20646;-67
2022/04/29 05:17:34;;;;;;;0.30;0.30;;;9.20;92.90;;;;;;5055428;28;20182;-67
2022/04/29 05:20:00;;;;;;;0.30;0.30;;;9.70;91.90;;;;;;5054969;28;20208;-67
2022/04/29 05:22:30;;;;;;;0.30;0.30;;;10.40;91.00;;;;;;5054912;28;20667;-66
2022/04/29 05:24:57;;;;;;;0.90;0.90;;;11.20;88.70;;;;;;5055518;28;20546;-67
2022/04/29 05:27:23;;;;;;;0.30;0.30;;;12.00;86.80;;;;;;5055063;28;20405;-67
2022/04/29 05:29:48;;;;;;;0.50;0.50;;;12.90;81.20;;;;;;5054912;28;20508;-68
2022/04/29 05:32:16;;;;;;;0.30;0.30;;;13.50;76.00;;;;;;5053907;28;20448;-67
2022/04/29 05:34:42;;;;;;;0.47;0.47;;;13.80;76.90;;;;;;5055127;28;20257;-68
2022/04/29 05:37:08;;;;;;;0.30;0.30;;;14.20;72.10;;;;;;5054908;28;20416;-68
2022/04/29 05:42:23;;;;;;;0.40;0.30;;;14.90;68.80;;;;;;5054808;28;20463;-66
2022/04/29 05:44:49;;;;;;;0.50;0.50;;;15.30;67.20;;;;;;5054955;28;20451;-68
2022/04/29 05:47:15;;;;;;;0.30;0.30;;;15.30;64.70;;;;;;5054827;28;20427;-67
2022/04/29 05:49:41;;;;;;;0.30;0.30;;;15.20;65.60;;;;;;5053202;28;20448;-67
2022/04/29 05:52:08;;;;;;;0.30;0.30;;;15.20;64.40;;;;;;5054502;28;20940;-66
2022/04/29 05:54:34;;;;;;;0.30;0.30;;;15.10;66.40;;;;;;5054747;28;20462;-67
2022/04/29 05:57:01;;;;;;;0.30;0.30;;;15.20;64.80;;;;;;5054445;28;20457;-67
2022/04/29 05:59:28;;;;;;;0.30;0.30;;;15.10;67.20;;;;;;5054612;28;20490;-67
2022/04/29 06:01:54;;;;;;;0.30;0.30;;;15.10;64.00;;;;;;5054122;28;20512;-67
2022/04/29 06:04:20;;;;;;;0.30;0.30;;;15.20;65.80;;;;;;5053120;28;20421;-68
2022/04/29 06:06:46;;;;;;;0.30;0.30;;;15.60;65.80;;;;;;5054315;28;20175;-67
2022/04/29 06:09:12;;;;;;;0.83;0.83;;;16.30;64.70;;;;;;5054392;28;20415;-67
2022/04/29 06:11:37;;;;;;;0.30;0.30;;;17.10;62.00;;;;;;5054144;28;20792;-68
2022/04/29 06:14:03;;;;;;;0.37;0.37;;;17.80;59.00;;;;;;5054339;28;20176;-68
2022/04/29 06:16:29;;;;;;;0.40;0.40;;;18.50;57.30;;;;;;5054613;28;20637;-67
2022/04/29 06:18:54;;;;;;;0.30;0.30;;;18.60;57.20;;;;;;5053989;28;20172;-68
2022/04/29 06:21:20;;;;;;;0.30;0.30;;;18.70;55.50;;;;;;5052168;28;20224;-67
2022/04/29 06:23:46;;;;;;;4.30;2.20;;;18.20;56.80;;;;;;5054007;28;20176;-67
2022/04/29 06:26:12;;;;;;;0.40;0.40;;;17.80;57.00;;;;;;5054190;28;20171;-67
2022/04/29 06:28:38;;;;;;;0.30;0.30;;;17.70;55.80;;;;;;5052742;28;20413;-67
2022/04/29 06:31:05;;;;;;;0.30;0.30;;;18.20;54.70;;;;;;5053652;28;20247;-67
2022/04/29 06:33:33;;;;;;;0.30;0.30;;;18.40;53.80;;;;;;5053757;28;20407;-67
2022/04/29 06:35:59;;;;;;;0.40;0.40;;;18.00;54.90;;;;;;5054014;28;20422;-67
2022/04/29 06:38:25;;;;;;;0.30;0.30;;;18.00;55.60;;;;;;5053865;28;20811;-67
2022/04/29 06:40:52;;;;;;;0.30;0.30;;;17.70;55.40;;;;;;5053382;28;20511;-67
2022/04/29 06:43:21;;;;;;;0.40;0.40;;;17.60;54.50;;;;;;5053773;28;20412;-68
2022/04/29 06:45:47;;;;;;;0.87;0.87;;;17.50;53.30;;;;;;5054046;28;20945;-67
2022/04/29 06:48:13;;;;;;;0.83;0.77;;;17.60;53.80;;;;;;5053798;28;20407;-68
2022/04/29 06:50:39;;;;;;;0.30;0.30;;;17.80;54.90;;;;;;5053289;28;20190;-67
2022/04/29 06:53:05;;;;;;;0.90;0.63;;;18.00;55.00;;;;;;5053497;28;20174;-67
2022/04/29 06:55:30;;;;;;;0.70;0.70;;;18.40;55.40;;;;;;5053535;28;20509;-67
2022/04/29 06:57:56;;;;;;;0.30;0.30;;;19.00;52.60;;;;;;5053459;28;20174;-66
2022/04/29 07:00:22;;;;;;;0.30;0.30;;;19.60;51.70;;;;;;5053276;28;20278;-68
2022/04/29 07:02:48;;;;;;;0.30;0.30;;;20.50;50.00;;;;;;5053512;28;20448;-67
2022/04/29 07:05:14;;;;;;;0.40;0.40;;;21.30;49.60;;;;;;5053537;28;20488;-68
2022/04/29 07:07:40;;;;;;;0.30;0.30;;;21.90;49.60;;;;;;5053650;28;20638;-67
2022/04/29 07:10:06;;;;;;;0.30;0.30;;;22.00;44.90;;;;;;5053259;28;20439;-67
2022/04/29 07:12:39;;;;;;;0.30;0.30;;;22.20;41.40;;;;;;5053481;28;20205;-67
2022/04/29 07:15:06;;;;;;;0.30;0.30;;;23.10;39.50;;;;;;5053597;28;20416;-68
2022/04/29 07:17:32;;;;;;;0.30;0.30;;;23.40;36.80;;;;;;5053412;28;20779;-68
2022/04/29 07:19:58;;;;;;;0.40;0.40;;;24.10;35.90;;;;;;5051843;28;20809;-68
2022/04/29 07:22:24;;;;;;;0.93;0.93;;;25.30;36.40;;;;;;5053087;28;20464;-68
2022/04/29 07:24:50;;;;;;;0.30;0.30;;;26.00;35.80;;;;;;5053537;28;20175;-67
2022/04/29 07:27:15;;;;;;;0.30;0.30;;;26.20;34.30;;;;;;5051963;28;20196;-68
2022/04/29 07:29:42;;;;;;;0.30;0.30;;;25.90;32.00;;;;;;5051947;28;20674;-68
2022/04/29 07:32:08;;;;;;;0.60;0.60;;;25.30;31.20;;;;;;5054889;28;20178;-67
2022/04/29 07:42:47;;;;;;;0.30;0.30;;;23.80;31.70;;;;;;5057244;28;20487;-68
2022/04/29 07:45:13;;;;;;;0.30;0.30;;;24.50;32.10;;;;;;5057221;28;20451;-68
2022/04/29 07:47:39;;;;;;;0.50;0.50;;;25.60;31.40;;;;;;5057143;28;20205;-68
2022/04/29 07:50:06;;;;;;;0.97;0.97;;;26.80;30.60;;;;;;5055633;28;20553;-68
2022/04/29 07:52:33;;;;;;;0.40;0.40;;;28.40;29.40;;;;;;5057015;28;20520;-68
2022/04/29 07:54:59;;;;;;;0.30;0.30;;;29.80;27.40;;;;;;5056924;28;20423;-68
2022/04/29 07:57:25;;;;;;;0.50;0.40;;;30.50;26.40;;;;;;5056981;28;20850;-68
2022/04/29 07:59:51;;;;;;;0.50;0.50;;;30.50;26.10;;;;;;5056758;28;20428;-68
2022/04/29 08:02:16;;;;;;;0.30;0.30;;;29.80;26.40;;;;;;5055569;28;20202;-67
2022/04/29 08:04:42;;;;;;;0.30;0.30;;;28.80;28.40;;;;;;5057171;28;20176;-68
2022/04/29 08:07:08;;;;;;;0.40;0.40;;;28.00;28.20;;;;;;5056859;28;20178;-68
2022/04/29 08:09:33;;;;;;;0.30;0.30;;;27.60;28.50;;;;;;5056605;28;20192;-67
2022/04/29 08:11:59;;;;;;;0.40;0.40;;;27.70;28.10;;;;;;5056526;28;20544;-68
2022/04/29 08:14:27;;;;;;;0.30;0.30;;;27.70;28.90;;;;;;5056734;28;20174;-68
2022/04/29 08:16:52;;;;;;;0.30;0.30;;;28.10;28.30;;;;;;5056650;28;20170;-68
2022/04/29 08:19:18;;;;;;;0.97;0.97;;;27.80;27.60;;;;;;5056522;28;20412;-68
2022/04/29 08:21:44;;;;;;;0.60;0.60;;;28.00;27.20;;;;;;5056106;28;20293;-68
2022/04/29 08:24:09;;;;;;;0.50;0.50;;;28.10;27.20;;;;;;5056534;28;20171;-68
2022/04/29 08:26:35;;;;;;;0.50;0.40;;;28.20;26.80;;;;;;5056302;28;20181;-68
2022/04/29 08:29:01;;;;;;;0.70;0.50;;;28.10;26.90;;;;;;5056411;28;20167;-68
2022/04/29 08:31:26;;;;;;;0.50;0.50;;;28.10;27.00;;;;;;5055902;28;20186;-68
2022/04/29 08:33:52;;;;;;;0.40;0.40;;;28.00;27.40;;;;;;5055024;28;20623;-68
2022/04/29 08:36:17;;;;;;;0.80;0.80;;;27.80;27.30;;;;;;5054879;28;20178;-68
2022/04/29 08:38:43;;;;;;;0.30;0.30;;;27.40;26.70;;;;;;5056335;28;20174;-68
2022/04/29 08:41:09;;;;;;;0.40;0.40;;;27.00;27.20;;;;;;5055730;28;20293;-68
2022/04/29 08:43:35;;;;;;;0.30;0.30;;;27.50;27.50;;;;;;5055604;28;20257;-67
2022/04/29 08:46:02;;;;;;;0.40;0.40;;;26.80;27.50;;;;;;5056102;28;20170;-68
2022/04/29 08:48:31;;;;;;;0.30;0.30;;;27.10;28.20;;;;;;5056327;28;20170;-68
2022/04/29 08:50:59;;;;;;;0.60;0.60;;;27.20;28.30;;;;;;5055589;28;20432;-68
2022/04/29 08:53:25;;;;;;;1.37;1.27;;;27.20;27.70;;;;;;5055823;28;20463;-68
2022/04/29 08:58:39;;;;;;;0.30;0.30;;;25.90;28.40;;;;;;5055885;28;20180;-67
2022/04/29 09:01:10;;;;;;;0.30;0.30;;;25.30;28.50;;;;;;5055697;28;20838;-67
2022/04/29 09:03:37;;;;;;;0.30;0.30;;;24.80;28.90;;;;;;5056057;28;20436;-67
2022/04/29 09:06:04;;;;;;;0.30;0.30;;;24.90;29.20;;;;;;5055873;28;20514;-68
2022/04/29 09:08:40;;;;;;;0.30;0.30;;;25.00;30.10;;;;;;5055620;28;20401;-68
2022/04/29 09:11:06;;;;;;;0.30;0.30;;;25.20;29.90;;;;;;5055262;28;20821;-68
2022/04/29 09:13:35;;;;;;;0.50;0.50;;;25.30;28.80;;;;;;5055644;28;20496;-68
2022/04/29 09:16:07;;;;;;;0.40;0.40;;;25.70;29.60;;;;;;5055530;28;20894;-68
2022/04/29 09:18:34;;;;;;;1.43;1.00;;;26.10;28.20;;;;;;5055377;28;20405;-68
2022/04/29 09:21:11;;;;;;;0.50;0.50;;;26.50;28.60;;;;;;5054881;28;20472;-68
2022/04/29 09:23:55;;;;;;;1.67;1.63;;;27.30;27.80;;;;;;5055449;28;20447;-68
2022/04/29 09:26:35;;;;;;;0.40;0.40;;;28.20;27.10;;;;;;5055376;28;20397;-68
2022/04/29 09:29:20;;;;;;;0.30;0.30;;;29.00;28.10;;;;;;5055330;28;20816;-68
2022/04/29 09:32:00;;;;;;;0.40;0.40;;;29.00;26.20;;;;;;5055137;28;20458;-68
2022/04/29 09:34:45;;;;;;;0.70;0.50;;;29.70;26.70;;;;;;5055147;28;20840;-68
2022/04/29 09:37:26;;;;;;;0.30;0.30;;;30.10;26.70;;;;;;5055143;28;20543;-68
2022/04/29 09:39:52;;;;;;;0.30;0.30;;;29.30;25.60;;;;;;5054757;28;20421;-67
2022/04/29 09:42:18;;;;;;;0.43;0.43;;;27.80;26.60;;;;;;5054897;28;20474;-68
2022/04/29 09:44:45;;;;;;;0.30;0.30;;;26.30;28.10;;;;;;5055020;28;20414;-68
2022/04/29 09:47:19;;;;;;;0.57;0.57;;;25.60;27.50;;;;;;5054947;28;20405;-68
2022/04/29 09:49:56;;;;;;;0.30;0.30;;;25.00;28.80;;;;;;5054515;28;20477;-68
2022/04/29 09:52:26;;;;;;;0.30;0.30;;;25.00;30.30;;;;;;5054773;28;20503;-68
2022/04/29 09:54:53;;;;;;;0.30;0.30;;;25.80;28.30;;;;;;5052627;28;20939;-67
2022/04/29 09:57:26;;;;;;;0.40;0.40;;;26.60;27.60;;;;;;5054552;28;20404;-67
2022/04/29 09:59:55;;;;;;;0.60;0.60;;;26.80;27.70;;;;;;5054147;28;20439;-67
2022/04/29 10:02:24;;;;;;;0.30;0.30;;;27.00;27.10;;;;;;5054411;28;20918;-68
2022/04/29 10:04:52;;;;;;;0.30;0.30;;;27.40;26.90;;;;;;5054563;28;20999;-68
2022/04/29 10:07:19;;;;;;;0.40;0.40;;;27.30;26.30;;;;;;5054308;28;20462;-68
2022/04/29 10:09:50;;;;;;;0.30;0.30;;;26.60;26.70;;;;;;5054247;28;20499;-68
2022/04/29 10:12:21;;;;;;;0.47;0.47;;;26.40;28.10;;;;;;5054247;28;20765;-68
2022/04/29 10:14:51;;;;;;;0.30;0.30;;;25.90;28.90;;;;;;5054301;28;20894;-68
2022/04/29 10:23:09;;;;;;;0.30;0.30;;;26.50;27.80;;;;;;5054311;28;20943;-67
2022/04/29 10:25:42;;;;;;;0.50;0.50;;;27.20;27.20;;;;;;5054187;28;20388;-68
2022/04/29 10:28:09;;;;;;;0.30;0.30;;;27.60;27.70;;;;;;5054164;28;20389;-68
2022/04/29 10:30:40;;;;;;;0.30;0.30;;;28.20;28.10;;;;;;5053851;28;20486;-68
2022/04/29 10:33:09;;;;;;;0.30;0.30;;;27.90;26.20;;;;;;5054116;28;20393;-68
2022/04/29 10:35:47;;;;;;;0.30;0.30;;;27.60;27.20;;;;;;5054049;28;20787;-67
2022/04/29 10:38:21;;;;;;;0.90;0.90;;;27.80;27.60;;;;;;5053814;28;20522;-68
2022/04/29 10:41:08;;;;;;;0.30;0.30;;;27.70;26.00;;;;;;5053798;28;20776;-68
2022/04/29 10:43:38;;;;;;;0.40;0.40;;;27.10;26.10;;;;;;5054101;28;20388;-68
2022/04/29 10:46:03;;;;;;;0.30;0.30;;;26.70;26.60;;;;;;5053783;28;20382;-67
2022/04/29 10:48:30;;;;;;;0.40;0.40;;;25.80;26.60;;;;;;5053594;28;20412;-68
2022/04/29 10:50:57;;;;;;;0.30;0.30;;;24.90;28.40;;;;;;5053335;28;20186;-68
2022/04/29 10:53:24;;;;;;;0.40;0.40;;;24.60;29.70;;;;;;5053672;28;20972;-68
2022/04/29 10:55:49;;;;;;;0.30;0.30;;;24.20;29.70;;;;;;5053517;28;20405;-67
2022/04/29 10:58:26;;;;;;;0.30;0.30;;;23.90;30.70;;;;;;5053551;28;20711;-67
2022/04/29 11:00:56;;;;;;;0.30;0.30;;;23.20;33.30;;;;;;5053329;28;20285;-67
2022/04/29 11:03:46;;;;;;;0.30;0.30;;;23.10;31.60;;;;;;5053571;28;20492;-67
2022/04/29 11:06:13;;;;;;;0.30;0.30;;;23.00;31.90;;;;;;5053456;28;20427;-67
2022/04/29 11:08:40;;;;;;;0.30;0.30;;;22.40;32.30;;;;;;5053533;28;20397;-67
2022/04/29 11:11:06;;;;;;;0.30;0.30;;;22.30;34.40;;;;;;5053267;28;20453;-68
2022/04/29 11:13:42;;;;;;;1.17;1.03;;;22.80;32.90;;;;;;5053573;28;20920;-68
2022/04/29 11:16:13;;;;;;;0.30;0.30;;;23.20;32.50;;;;;;5053555;28;20408;-67
2022/04/29 11:18:41;;;;;;;0.40;0.40;;;23.60;30.70;;;;;;5053571;28;20409;-68
2022/04/29 11:26:48;;;;;;;0.30;0.30;;;23.50;30.90;;;;;;5053391;28;20412;-67
2022/04/29 11:29:16;;;;;;;0.30;0.30;;;23.10;33.00;;;;;;5053557;28;20412;-67
2022/04/29 11:31:41;;;;;;;0.40;0.40;;;22.90;33.00;;;;;;5052935;28;20488;-68
2022/04/29 11:34:10;;;;;;;0.40;0.40;;;22.80;33.60;;;;;;5053245;28;20384;-67
2022/04/29 11:36:37;;;;;;;0.30;0.30;;;22.60;33.70;;;;;;5053260;28;20174;-67
2022/04/29 11:39:08;;;;;;;0.30;0.30;;;22.60;36.20;;;;;;5053211;28;20812;-67
2022/04/29 11:41:34;;;;;;;0.30;0.30;;;22.40;36.20;;;;;;5052809;28;20430;-67
2022/04/29 11:44:02;;;;;;;0.30;0.30;;;22.00;38.10;;;;;;5052932;28;20819;-67
2022/04/29 11:46:28;;;;;;;0.40;0.40;;;21.70;38.60;;;;;;5053148;28;20173;-67
2022/04/29 11:48:58;;;;;;;0.30;0.30;;;21.50;37.80;;;;;;5053161;28;20909;-67
2022/04/29 11:51:24;;;;;;;0.40;0.40;;;21.60;38.70;;;;;;5051624;28;20281;-67
2022/04/29 11:54:05;;;;;;;0.30;0.30;;;21.70;38.70;;;;;;5052774;28;20409;-67
2022/04/29 11:56:39;;;;;;;0.30;0.30;;;21.70;38.90;;;;;;5051717;28;20899;-67
2022/04/29 11:59:09;;;;;;;0.30;0.30;;;21.30;38.80;;;;;;5053177;28;20413;-67
2022/04/29 12:01:36;;;;;;;0.83;0.83;;;20.90;40.70;;;;;;5052660;28;20457;-67
2022/04/29 12:04:02;;;;;;;0.30;0.30;;;20.80;40.20;;;;;;5052975;28;20401;-67
2022/04/29 12:06:28;;;;;;;0.30;0.30;;;20.90;39.40;;;;;;5052687;28;20408;-67
2022/04/29 12:08:54;;;;;;;0.30;0.30;;;21.00;38.90;;;;;;5052727;28;20450;-67
2022/04/29 12:11:29;;;;;;;0.90;0.90;;;20.90;39.10;;;;;;5052511;28;20834;-67
2022/04/29 12:13:55;;;;;;;0.30;0.30;;;21.00;39.50;;;;;;5051649;28;20419;-68
2022/04/29 12:16:21;;;;;;;0.40;0.40;;;20.80;39.80;;;;;;5052887;28;20423;-68
2022/04/29 12:18:49;;;;;;;0.30;0.30;;;20.60;39.70;;;;;;5055384;28;20831;-67
2022/04/29 12:21:25;;;;;;;0.30;0.30;;;20.60;40.00;;;;;;5055985;28;20519;-67
2022/04/29 12:23:54;;;;;;;0.30;0.30;;;20.90;40.10;;;;;;5056552;28;20894;-67
2022/04/29 12:26:20;;;;;;;0.30;0.30;;;21.00;41.40;;;;;;5056479;28;20405;-67
2022/04/29 12:28:56;;;;;;;0.30;0.30;;;21.30;41.00;;;;;;5056493;28;20731;-67
2022/04/29 12:36:57;;;;;;;2.60;0.93;;;21.00;41.60;;;;;;5056276;28;20454;-67
2022/04/29 12:39:43;;;;;;;0.30;0.30;;;21.10;41.80;;;;;;5055911;28;20420;-67
2022/04/29 12:42:11;;;;;;;0.30;0.30;;;21.10;42.00;;;;;;5056157;28;20463;-67
2022/04/29 12:47:40;;;;;;;0.60;0.60;;;20.70;42.80;;;;;;5055994;28;20404;-67
2022/04/29 12:50:36;;;;;;;0.40;0.40;;;20.80;42.20;;;;;;5055692;28;20514;-67
2022/04/29 12:53:05;;;;;;;0.30;0.30;;;20.50;42.30;;;;;;5042292;28;21003;-67
2022/04/29 12:55:37;;;;;;;0.30;0.30;;;20.10;42.60;;;;;;5056043;28;20411;-67
2022/04/29 12:58:05;;;;;;;0.30;0.30;;;19.90;43.60;;;;;;5055901;28;20438;-66
2022/04/29 13:00:30;;;;;;;0.30;0.30;;;19.90;43.60;;;;;;5055859;28;20447;-67
2022/04/29 13:03:05;;;;;;;0.30;0.30;;;20.00;43.50;;;;;;5055486;28;20459;-67
2022/04/29 13:05:32;;;;;;;0.30;0.30;;;19.80;43.10;;;;;;5054309;28;20170;-68
2022/04/29 13:07:58;;;;;;;0.30;0.30;;;19.60;43.30;;;;;;5055596;28;20522;-67
2022/04/29 13:10:24;;;;;;;0.30;0.30;;;19.50;43.20;;;;;;5055344;28;20657;-67
2022/04/29 13:12:50;;;;;;;0.40;0.40;;;19.50;43.40;;;;;;5055545;28;20184;-67
2022/04/29 13:15:16;;;;;;;1.23;1.23;;;19.60;43.50;;;;;;5055317;28;20548;-68
2022/04/29 13:17:42;;;;;;;0.30;0.30;;;19.70;43.00;;;;;;5055335;28;20519;-67
2022/04/29 13:20:08;;;;;;;0.30;0.30;;;19.80;43.00;;;;;;5053763;28;20438;-67
2022/04/29 13:22:37;;;;;;;0.30;0.30;;;19.60;43.00;;;;;;5055280;28;20208;-67
2022/04/29 13:25:05;;;;;;;1.93;1.93;;;19.70;43.70;;;;;;5055125;28;20409;-68
2022/04/29 13:27:30;;;;;;;0.30;0.30;;;19.70;42.90;;;;;;5055269;28;20404;-67
2022/04/29 13:29:56;;;;;;;0.40;0.40;;;19.60;42.90;;;;;;5053599;28;20439;-67
2022/04/29 13:32:22;;;;;;;0.60;0.50;;;19.70;43.30;;;;;;5055351;28;20626;-67
2022/04/29 13:34:51;;;;;;;0.30;0.30;;;19.80;43.10;;;;;;5055058;28;20171;-67